Time;durP1;ratioP1;P1;durP2;ratioP2;P2;SDS_P1;SDS_P2;PMS_P1;PMS_P2;Temp;Humidity;BMP_temperature;BMP_pressure;BME280_temperature;BME280_humidity;BME280_pressure;Samples;Min_cycle;Max_cycle;Signal;HPM_P1;HPM_P2
2022/01/03 00:00:14;;;;;;;;;;;;;;;18.52;51.13;100884.84;5016261;28;19941;-44
2022/01/03 00:02:39;;;;;;;;;;;;;;;18.51;51.22;100889.38;4985058;28;19925;-47
2022/01/03 00:05:05;;;;;;;;;;;;;;;18.50;51.16;100887.72;4984744;28;19961;-48
2022/01/03 00:07:30;;;;;;;;;;;;;;;18.50;51.16;100890.41;4985120;28;19918;-49
2022/01/03 00:09:55;;;;;;;;;;;;;;;18.49;51.12;100889.56;5016190;28;20009;-46
2022/01/03 00:12:20;;;;;;;;;;;;;;;18.48;51.06;100889.75;4985287;28;19918;-48
2022/01/03 00:14:47;;;;;;;;;;;;;;;18.47;51.20;100909.56;4984531;28;19918;-45
2022/01/03 00:17:12;;;;;;;;;;;;;;;18.47;51.03;100893.41;5016173;28;19918;-48
2022/01/03 00:19:37;;;;;;;;;;;;;;;18.47;50.90;100901.50;4983999;28;19922;-47
2022/01/03 00:22:04;;;;;;;;;;;;;;;18.46;51.05;100900.66;4984856;28;19925;-48
2022/01/03 00:24:33;;;;;;;;;;;;;;;18.46;51.04;100908.75;5011251;28;19922;-48
2022/01/03 00:27:00;;;;;;;;;;;;;;;18.45;51.04;100908.91;4984560;28;19922;-46
2022/01/03 00:29:26;;;;;;;;;;;;;;;18.45;50.80;100914.28;4984271;28;19981;-46
2022/01/03 00:31:51;;;;;;;;;;;;;;;18.44;51.07;100904.53;4983070;28;19914;-45
2022/01/03 00:34:16;;;;;;;;;;;;;;;18.42;50.86;100904.69;4984094;28;19925;-45
2022/01/03 00:36:44;;;;;;;;;;;;;;;18.42;50.80;100910.06;4984513;28;19918;-46
2022/01/03 00:39:09;;;;;;;;;;;;;;;18.41;50.78;100904.88;4984306;28;19925;-44
2022/01/03 00:41:38;;;;;;;;;;;;;;;18.41;50.68;100919.16;4984522;28;19918;-46
2022/01/03 00:44:03;;;;;;;;;;;;;;;18.40;50.70;100914.78;4982531;28;20389;-44
2022/01/03 00:46:30;;;;;;;;;;;;;;;18.39;50.78;100910.44;4984300;28;19942;-45
2022/01/03 00:48:55;;;;;;;;;;;;;;;18.38;50.70;100922.19;4983724;28;19918;-44
2022/01/03 00:51:20;;;;;;;;;;;;;;;18.38;50.67;100924.03;4982799;28;19922;-46
2022/01/03 00:53:49;;;;;;;;;;;;;;;18.37;50.58;100920.50;4984100;28;19925;-47
2022/01/03 00:56:15;;;;;;;;;;;;;;;18.37;50.60;100914.28;4983999;28;19918;-47
2022/01/03 00:58:46;;;;;;;;;;;;;;;18.36;50.67;100920.69;4984214;28;19918;-45
2022/01/03 01:01:11;;;;;;;;;;;;;;;18.35;50.81;100903.69;4984101;28;19915;-46
2022/01/03 01:03:37;;;;;;;;;;;;;;;18.35;50.60;100921.66;4982023;28;19929;-45
2022/01/03 01:06:03;;;;;;;;;;;;;;;18.24;50.60;100909.38;4984005;28;19914;-49
2022/01/03 01:08:29;;;;;;;;;;;;;;;18.33;50.70;100916.44;5015458;28;19918;-44
2022/01/03 01:10:55;;;;;;;;;;;;;;;18.33;50.60;100913.75;5014447;28;20049;-45
2022/01/03 01:13:21;;;;;;;;;;;;;;;18.33;50.51;100921.00;4984001;28;19925;-44
2022/01/03 01:15:46;;;;;;;;;;;;;;;18.31;50.43;100918.47;4975669;28;19918;-44
2022/01/03 01:18:11;;;;;;;;;;;;;;;18.31;50.57;100921.16;4983576;28;19911;-44
2022/01/03 01:20:37;;;;;;;;;;;;;;;18.31;50.58;100920.31;4983354;28;19918;-48
2022/01/03 01:23:03;;;;;;;;;;;;;;;18.30;50.53;100929.38;4984188;28;19941;-46
2022/01/03 01:28:00;;;;;;;;;;;;;;;18.29;50.26;100931.25;4990411;28;20455;-44
2022/01/03 01:30:26;;;;;;;;;;;;;;;18.29;50.30;100925.03;4983572;28;19922;-46
2022/01/03 01:32:55;;;;;;;;;;;;;;;18.28;50.25;100937.63;5014717;28;20657;-45
2022/01/03 01:35:22;;;;;;;;;;;;;;;18.27;50.39;100935.97;5014734;28;19972;-45
2022/01/03 01:37:47;;;;;;;;;;;;;;;18.27;50.48;100940.50;4983595;28;19918;-43
2022/01/03 01:40:12;;;;;;;;;;;;;;;18.26;50.32;100942.31;4982471;28;19964;-45
2022/01/03 01:42:37;;;;;;;;;;;;;;;18.25;50.14;100937.97;4989339;28;19925;-47
2022/01/03 01:45:07;;;;;;;;;;;;;;;18.24;50.30;100944.34;4988857;28;19918;-46
2022/01/03 01:47:32;;;;;;;;;;;;;;;18.24;50.23;100936.28;4989009;28;19925;-44
2022/01/03 01:49:58;;;;;;;;;;;;;;;18.23;50.16;100934.59;4987954;28;19922;-44
2022/01/03 01:52:23;;;;;;;;;;;;;;;18.23;50.06;100943.50;5021585;28;19994;-44
2022/01/03 01:54:56;;;;;;;;;;;;;;;18.22;50.27;100949.91;4989665;28;19973;-46
2022/01/03 01:57:21;;;;;;;;;;;;;;;18.22;50.04;100946.34;4990328;28;19925;-47
2022/01/03 02:00:05;;;;;;;;;;;;;;;18.21;49.96;100939.28;4988363;28;19918;-46
2022/01/03 02:02:35;;;;;;;;;;;;;;;18.21;50.22;100944.66;4989901;28;19918;-46
2022/01/03 02:05:19;;;;;;;;;;;;;;;18.20;50.19;100937.63;4989098;28;19918;-45
2022/01/03 02:08:07;;;;;;;;;;;;;;;18.18;50.07;100945.84;4989929;28;20005;-48
2022/01/03 02:10:43;;;;;;;;;;;;;;;18.18;49.94;100942.31;4984229;28;19922;-44
2022/01/03 02:13:08;;;;;;;;;;;;;;;18.17;50.23;100946.84;4988437;28;20143;-46
2022/01/03 02:15:36;;;;;;;;;;;;;;;18.17;50.12;100948.69;4989727;28;20560;-45
2022/01/03 02:18:01;;;;;;;;;;;;;;;18.16;50.13;100947.84;4989511;28;20359;-48
2022/01/03 02:20:27;;;;;;;;;;;;;;;18.16;49.86;100947.84;4989230;28;20588;-48
2022/01/03 02:22:53;;;;;;;;;;;;;;;18.16;49.94;100955.09;4989841;28;19925;-45
2022/01/03 02:25:18;;;;;;;;;;;;;;;18.14;50.09;100952.56;4989324;28;19989;-47
2022/01/03 02:27:44;;;;;;;;;;;;;;;18.14;49.88;100946.34;4989690;28;19922;-48
2022/01/03 02:30:11;;;;;;;;;;;;;;;18.13;50.06;100947.34;4989408;28;19922;-44
2022/01/03 02:32:36;;;;;;;;;;;;;;;18.13;50.09;100952.72;4989776;28;20353;-44
2022/01/03 02:35:01;;;;;;;;;;;;;;;18.12;49.90;100959.09;4989108;28;19918;-45
2022/01/03 02:37:26;;;;;;;;;;;;;;;18.11;50.10;100963.66;4989635;28;19941;-48
2022/01/03 02:39:52;;;;;;;;;;;;;;;18.11;49.92;100960.97;4989627;28;19918;-43
2022/01/03 02:42:23;;;;;;;;;;;;;;;18.10;50.04;100961.97;4989761;28;19925;-46
2022/01/03 02:44:48;;;;;;;;;;;;;;;18.09;49.86;100964.81;4989400;28;19918;-44
2022/01/03 02:47:20;;;;;;;;;;;;;;;18.08;49.92;100960.44;5004253;28;19922;-45
2022/01/03 02:49:45;;;;;;;;;;;;;;;18.08;49.98;100957.75;4988792;28;19968;-47
2022/01/03 02:52:10;;;;;;;;;;;;;;;18.06;49.75;100955.22;4988774;28;20531;-44
2022/01/03 02:54:35;;;;;;;;;;;;;;;18.06;49.96;100957.06;4986365;28;19918;-50
2022/01/03 02:57:00;;;;;;;;;;;;;;;18.04;49.93;100954.53;4986379;28;19926;-44
2022/01/03 02:59:25;;;;;;;;;;;;;;;18.04;49.94;100951.00;5017370;28;19929;-43
2022/01/03 03:01:51;;;;;;;;;;;;;;;18.03;49.79;100958.22;4986154;28;19918;-48
2022/01/03 03:04:16;;;;;;;;;;;;;;;18.03;49.80;100955.53;4985446;28;19918;-44
2022/01/03 03:06:41;;;;;;;;;;;;;;;18.02;49.96;100961.94;4986222;28;19922;-47
2022/01/03 03:09:07;;;;;;;;;;;;;;;18.01;49.88;100952.19;4986189;28;19974;-45
2022/01/03 03:11:34;;;;;;;;;;;;;;;18.01;49.78;100957.56;4986011;28;19945;-49
2022/01/03 03:13:59;;;;;;;;;;;;;;;18.01;49.75;100952.19;4985958;28;19981;-50
2022/01/03 03:16:25;;;;;;;;;;;;;;;17.99;49.66;100957.72;4985786;28;19922;-47
2022/01/03 03:18:50;;;;;;;;;;;;;;;17.99;49.86;100956.88;4985003;28;19928;-47
2022/01/03 03:21:15;;;;;;;;;;;;;;;17.99;49.80;100957.72;4986058;28;19965;-48
2022/01/03 03:23:40;;;;;;;;;;;;;;;17.97;49.72;100957.03;4986032;28;20287;-45
2022/01/03 03:26:05;;;;;;;;;;;;;;;17.98;49.84;100957.88;4985763;28;19918;-45
2022/01/03 03:28:31;;;;;;;;;;;;;;;17.97;49.67;100965.09;4985806;28;19960;-46
2022/01/03 03:30:58;;;;;;;;;;;;;;;17.96;49.85;100960.72;4985495;28;20651;-46
2022/01/03 03:33:23;;;;;;;;;;;;;;;17.96;49.65;100960.72;4986109;28;19925;-43
2022/01/03 03:35:50;;;;;;;;;;;;;;;17.96;49.87;100963.41;4985292;28;19917;-48
2022/01/03 03:38:15;;;;;;;;;;;;;;;17.94;49.59;100957.34;4985789;28;19922;-47
2022/01/03 03:40:45;;;;;;;;;;;;;;;17.95;49.80;100955.50;4985598;28;19925;-46
2022/01/03 03:43:10;;;;;;;;;;;;;;;17.93;49.83;100953.00;4985721;28;20418;-49
2022/01/03 03:45:35;;;;;;;;;;;;;;;17.94;49.81;100962.72;4985590;28;19919;-47
2022/01/03 03:48:01;;;;;;;;;;;;;;;17.93;49.60;100966.44;4985216;28;19978;-48
2022/01/03 03:50:26;;;;;;;;;;;;;;;17.92;49.60;100953.97;4985070;28;19969;-46
2022/01/03 03:52:51;;;;;;;;;;;;;;;17.91;49.57;100960.34;4985258;28;19924;-49
2022/01/03 03:55:16;;;;;;;;;;;;;;;17.92;49.56;100953.13;4984333;28;20045;-45
2022/01/03 03:57:41;;;;;;;;;;;;;;;17.92;49.50;100953.97;4985385;28;19924;-45
2022/01/03 04:00:07;;;;;;;;;;;;;;;17.91;49.62;100963.03;4985170;28;19918;-49
2022/01/03 04:02:33;;;;;;;;;;;;;;;17.91;49.62;100959.50;4984077;28;20363;-46
2022/01/03 04:04:59;;;;;;;;;;;;;;;17.90;49.54;100960.53;4983836;28;20391;-48
2022/01/03 04:07:24;;;;;;;;;;;;;;;17.90;49.76;100955.16;4985079;28;19957;-49
2022/01/03 04:09:49;;;;;;;;;;;;;;;17.89;49.67;100964.22;4984716;28;20291;-47
2022/01/03 04:12:14;;;;;;;;;;;;;;;17.88;49.57;100963.38;4985203;28;19918;-47
2022/01/03 04:14:40;;;;;;;;;;;;;;;17.88;49.71;100957.13;4984802;28;19918;-44
2022/01/03 04:17:05;;;;;;;;;;;;;;;17.89;49.46;100958.84;4984655;28;19922;-46
2022/01/03 04:19:30;;;;;;;;;;;;;;;17.87;49.41;100956.31;4984005;28;20506;-46
2022/01/03 04:21:55;;;;;;;;;;;;;;;17.87;49.53;100956.31;4984621;28;19921;-46
2022/01/03 04:24:20;;;;;;;;;;;;;;;17.87;49.41;100950.09;4984998;28;20009;-45
2022/01/03 04:26:45;;;;;;;;;;;;;;;17.86;49.60;100954.63;4984629;28;19925;-44
2022/01/03 04:29:11;;;;;;;;;;;;;;;17.86;49.60;100956.47;4984572;28;19918;-47
2022/01/03 04:31:36;;;;;;;;;;;;;;;17.85;49.43;100962.88;4984564;28;19922;-47
2022/01/03 04:34:01;;;;;;;;;;;;;;;17.84;49.46;100959.34;4984043;28;19972;-43
2022/01/03 04:36:26;;;;;;;;;;;;;;;17.84;49.39;100969.22;4984550;28;19953;-46
2022/01/03 04:38:52;;;;;;;;;;;;;;;17.84;49.46;100961.16;4984626;28;19918;-49
2022/01/03 04:41:17;;;;;;;;;;;;;;;17.84;49.38;100955.78;4984380;28;19918;-46
2022/01/03 04:43:42;;;;;;;;;;;;;;;17.83;49.51;100959.47;4984236;28;20034;-47
2022/01/03 04:46:08;;;;;;;;;;;;;;;17.83;49.61;100952.25;4984233;28;19918;-46
2022/01/03 04:48:34;;;;;;;;;;;;;;;17.82;49.67;100950.56;4984388;28;20076;-47
2022/01/03 04:50:59;;;;;;;;;;;;;;;17.82;49.51;100958.63;4983862;28;19922;-47
2022/01/03 04:53:25;;;;;;;;;;;;;;;17.82;49.58;100955.09;4984125;28;19925;-45
2022/01/03 04:55:51;;;;;;;;;;;;;;;17.71;49.64;100935.53;4982998;28;19918;-48
2022/01/03 04:58:16;;;;;;;;;;;;;;;17.82;49.49;100947.03;4983768;28;19914;-44
2022/01/03 05:00:41;;;;;;;;;;;;;;;17.82;49.55;100947.03;4983487;28;20049;-44
2022/01/03 05:03:06;;;;;;;;;;;;;;;17.82;49.50;100941.66;4981749;28;20299;-46
2022/01/03 05:05:31;;;;;;;;;;;;;;;17.81;49.35;100945.34;4983003;28;19977;-46
2022/01/03 05:07:56;;;;;;;;;;;;;;;17.82;49.47;100934.44;4982013;28;19985;-48
2022/01/03 05:10:21;;;;;;;;;;;;;;;17.81;49.53;100943.50;4983356;28;19926;-46
2022/01/03 05:12:47;;;;;;;;;;;;;;;17.81;49.43;100937.28;4983674;28;19918;-47
2022/01/03 05:15:12;;;;;;;;;;;;;;;17.80;49.64;100933.75;4983066;28;19981;-44
2022/01/03 05:17:37;;;;;;;;;;;;;;;17.81;49.64;100939.97;4981406;28;19923;-46
2022/01/03 05:20:02;;;;;;;;;;;;;;;17.80;49.63;100939.13;4981311;28;19962;-47
2022/01/03 05:22:28;;;;;;;;;;;;;;;17.82;49.54;100944.34;4983363;28;20472;-47
2022/01/03 05:24:53;;;;;;;;;;;;;;;17.81;49.60;100940.81;4983431;28;20000;-45
2022/01/03 05:27:18;;;;;;;;;;;;;;;17.82;49.60;100931.75;4982094;28;19989;-45
2022/01/03 05:29:43;;;;;;;;;;;;;;;17.81;49.61;100940.81;4983068;28;20446;-45
2022/01/03 05:32:08;;;;;;;;;;;;;;;17.82;49.47;100937.13;4983599;28;19918;-45
2022/01/03 05:34:33;;;;;;;;;;;;;;;17.81;49.43;100922.00;5014423;28;19929;-47
2022/01/03 05:36:58;;;;;;;;;;;;;;;17.81;49.55;100935.44;4983749;28;19918;-49
2022/01/03 05:39:24;;;;;;;;;;;;;;;17.82;49.51;100936.28;4983016;28;19928;-47
2022/01/03 05:41:49;;;;;;;;;;;;;;;17.82;49.44;100934.44;4982716;28;19918;-49
2022/01/03 05:44:14;;;;;;;;;;;;;;;17.82;49.71;100939.81;4983021;28;20428;-46
2022/01/03 05:46:39;;;;;;;;;;;;;;;17.83;49.83;100935.28;4985904;28;19925;-48
2022/01/03 05:49:06;;;;;;;;;;;;;;;17.83;49.90;100932.56;4982313;28;19981;-46
2022/01/03 05:51:31;;;;;;;;;;;;;;;17.83;49.68;100925.34;4983053;28;19928;-44
2022/01/03 05:53:56;;;;;;;;;;;;;;;17.83;49.69;100928.03;4983176;28;20584;-49
2022/01/03 05:56:22;;;;;;;;;;;;;;;17.84;49.70;100923.50;4980520;28;20360;-44
2022/01/03 05:58:47;;;;;;;;;;;;;;;17.84;49.82;100924.38;4980208;28;19918;-45
2022/01/03 06:01:12;;;;;;;;;;;;;;;17.84;49.86;100935.13;4982853;28;19991;-48
2022/01/03 06:03:39;;;;;;;;;;;;;;;17.84;49.95;100920.81;4980901;28;19925;-45
2022/01/03 06:06:18;;;;;;;;;;;;;;;17.84;49.76;100916.31;4980168;28;19918;-47
2022/01/03 06:08:43;;;;;;;;;;;;;;;17.85;50.02;100914.44;4982969;28;19925;-50
2022/01/03 06:11:08;;;;;;;;;;;;;;;17.84;50.04;100913.59;4982603;28;19922;-50
2022/01/03 06:13:34;;;;;;;;;;;;;;;17.84;49.88;100905.53;4980617;28;20375;-47
2022/01/03 06:15:59;;;;;;;;;;;;;;;17.85;50.01;100901.00;4983027;28;19921;-44
2022/01/03 06:18:24;;;;;;;;;;;;;;;17.84;49.85;100894.78;4982912;28;19977;-46
2022/01/03 06:20:51;;;;;;;;;;;;;;;17.85;49.86;100895.63;4982609;28;19921;-43
2022/01/03 06:23:16;;;;;;;;;;;;;;;17.85;49.95;100892.94;4980692;28;19914;-48
2022/01/03 06:25:42;;;;;;;;;;;;;;;17.85;50.17;100891.09;4982856;28;19953;-48
2022/01/03 06:28:08;;;;;;;;;;;;;;;17.86;50.08;100881.16;4984987;28;19922;-45
2022/01/03 06:30:34;;;;;;;;;;;;;;;17.85;50.07;100883.00;4984233;28;19918;-44
2022/01/03 06:32:59;;;;;;;;;;;;;;;17.86;50.10;100892.75;4986504;28;20016;-44
2022/01/03 06:35:24;;;;;;;;;;;;;;;17.85;50.02;100891.09;4986212;28;20832;-46
2022/01/03 06:37:49;;;;;;;;;;;;;;;17.86;50.08;100886.53;4986459;28;20441;-47
2022/01/03 06:40:14;;;;;;;;;;;;;;;17.87;50.19;100888.22;4986033;28;19918;-47
2022/01/03 06:42:39;;;;;;;;;;;;;;;17.85;50.24;100880.31;4986447;28;19915;-44
2022/01/03 06:45:05;;;;;;;;;;;;;;;17.86;50.27;100883.84;4986160;28;20373;-46
2022/01/03 06:47:30;;;;;;;;;;;;;;;17.86;50.35;100878.47;4986242;28;19921;-49
2022/01/03 06:49:55;;;;;;;;;;;;;;;17.85;50.17;100872.25;4985672;28;19918;-47
2022/01/03 06:52:20;;;;;;;;;;;;;;;17.85;50.33;100879.50;4986246;28;19964;-48
2022/01/03 06:54:45;;;;;;;;;;;;;;;17.85;50.17;100872.25;4986095;28;19914;-47
2022/01/03 06:57:11;;;;;;;;;;;;;;;17.84;50.29;100878.66;4983662;28;19914;-47
2022/01/03 06:59:36;;;;;;;;;;;;;;;17.85;50.15;100874.09;4986148;28;19921;-46
2022/01/03 07:02:01;;;;;;;;;;;;;;;17.85;50.29;100874.94;4986136;28;19993;-48
2022/01/03 07:04:26;;;;;;;;;;;;;;;17.85;50.20;100876.78;4985481;28;19986;-49
2022/01/03 07:06:51;;;;;;;;;;;;;;;17.85;50.11;100872.25;4983351;28;19953;-45
2022/01/03 07:09:17;;;;;;;;;;;;;;;17.86;50.16;100882.00;4984732;28;19921;-44
2022/01/03 07:11:42;;;;;;;;;;;;;;;17.86;50.31;100881.16;4987712;28;19922;-47
2022/01/03 07:19:35;;;;;;;;;;;;;;;17.85;50.48;100884.88;4990041;28;19929;-46
2022/01/03 07:22:04;;;;;;;;;;;;;;;17.83;50.47;100871.56;4988157;28;19918;-46
2022/01/03 07:24:29;;;;;;;;;;;;;;;17.83;50.34;100868.88;4987082;28;19925;-45
2022/01/03 07:26:54;;;;;;;;;;;;;;;17.84;50.42;100872.41;4990561;28;19922;-45
2022/01/03 07:29:20;;;;;;;;;;;;;;;17.83;50.48;100874.25;5019360;28;19925;-44
2022/01/03 07:31:45;;;;;;;;;;;;;;;17.85;50.20;100877.63;4987663;28;19926;-47
2022/01/03 07:34:10;;;;;;;;;;;;;;;17.87;50.27;100881.00;4984703;28;19925;-47
2022/01/03 07:36:35;;;;;;;;;;;;;;;17.88;50.13;100881.81;4987786;28;19918;-46
2022/01/03 07:39:00;;;;;;;;;;;;;;;17.89;50.26;100883.53;4986089;28;19922;-45
2022/01/03 07:41:25;;;;;;;;;;;;;;;17.90;50.28;100877.16;4993200;28;19918;-46
2022/01/03 07:43:50;;;;;;;;;;;;;;;17.91;50.25;100871.59;4991006;28;19972;-44
2022/01/03 07:46:16;;;;;;;;;;;;;;;17.92;50.12;100881.34;4992825;28;19917;-46
2022/01/03 07:48:41;;;;;;;;;;;;;;;17.92;50.13;100870.56;4990057;28;19988;-45
2022/01/03 07:51:06;;;;;;;;;;;;;;;17.94;50.01;100865.06;4990200;28;19968;-45
2022/01/03 07:53:32;;;;;;;;;;;;;;;17.94;50.16;100876.66;4984297;28;20022;-47
2022/01/03 07:55:58;;;;;;;;;;;;;;;17.95;49.93;100869.41;4977997;28;19918;-46
2022/01/03 07:58:23;;;;;;;;;;;;;;;17.95;50.11;100867.56;4984352;28;19918;-46
2022/01/03 08:00:48;;;;;;;;;;;;;;;17.97;49.84;100879.03;4985110;28;19928;-46
2022/01/03 08:03:14;;;;;;;;;;;;;;;17.98;49.90;100874.47;4982105;28;19922;-45
2022/01/03 08:05:40;;;;;;;;;;;;;;;17.98;50.02;100872.63;4984613;28;19919;-48
2022/01/03 08:08:08;;;;;;;;;;;;;;;18.00;49.99;100877.84;4984417;28;19984;-44
2022/01/03 08:10:34;;;;;;;;;;;;;;;18.01;49.98;100881.38;4984863;28;19926;-46
2022/01/03 08:12:59;;;;;;;;;;;;;;;18.03;49.80;100888.28;4984619;28;19929;-45
2022/01/03 08:15:24;;;;;;;;;;;;;;;18.04;49.73;100897.19;4984916;28;19937;-46
2022/01/03 08:17:49;;;;;;;;;;;;;;;18.04;49.69;100898.03;4984496;28;20431;-45
2022/01/03 08:20:14;;;;;;;;;;;;;;;18.04;49.72;100902.56;4983849;28;19926;-51
2022/01/03 08:22:40;;;;;;;;;;;;;;;17.91;49.83;100878.81;4983330;28;19918;-43
2022/01/03 08:25:05;;;;;;;;;;;;;;;18.05;49.70;100901.56;4984266;28;19985;-45
2022/01/03 08:27:30;;;;;;;;;;;;;;;18.06;49.47;100889.81;4974643;28;19969;-49
2022/01/03 08:29:55;;;;;;;;;;;;;;;18.06;49.90;100898.72;4981644;28;19922;-43
2022/01/03 08:32:20;;;;;;;;;;;;;;;18.07;49.92;100900.41;4982281;28;19918;-48
2022/01/03 08:34:46;;;;;;;;;;;;;;;18.08;49.80;100898.56;4982185;28;20415;-50
2022/01/03 08:37:11;;;;;;;;;;;;;;;18.09;49.85;100900.22;4982703;28;19914;-47
2022/01/03 08:39:37;;;;;;;;;;;;;;;18.08;50.21;100898.56;4982872;28;19964;-46
2022/01/03 08:42:02;;;;;;;;;;;;;;;18.11;49.89;100892.84;4982994;28;20450;-45
2022/01/03 08:44:27;;;;;;;;;;;;;;;18.12;49.97;100895.38;4982417;28;20355;-49
2022/01/03 08:46:52;;;;;;;;;;;;;;;18.13;50.18;100897.03;4982166;28;19918;-47
2022/01/03 08:49:18;;;;;;;;;;;;;;;18.16;50.08;100896.72;4981442;28;19941;-49
2022/01/03 08:51:43;;;;;;;;;;;;;;;18.18;50.08;100896.56;4982146;28;19922;-42
2022/01/03 08:54:08;;;;;;;;;;;;;;;18.19;49.94;100890.19;4982181;28;19922;-47
2022/01/03 08:56:33;;;;;;;;;;;;;;;18.19;49.78;100896.41;4980922;28;20446;-42
2022/01/03 08:58:59;;;;;;;;;;;;;;;18.21;49.96;100893.53;4982006;28;19925;-42
2022/01/03 09:01:24;;;;;;;;;;;;;;;18.21;49.79;100888.16;4982095;28;19918;-44
2022/01/03 09:03:52;;;;;;;;;;;;;;;18.22;49.75;100879.94;4981285;28;19918;-48
2022/01/03 09:06:17;;;;;;;;;;;;;;;18.23;49.65;100883.47;4982043;28;19914;-46
2022/01/03 09:08:43;;;;;;;;;;;;;;;18.25;50.03;100886.81;4981818;28;19918;-45
2022/01/03 09:11:08;;;;;;;;;;;;;;;18.26;49.65;100888.50;4982014;28;19993;-48
2022/01/03 09:13:34;;;;;;;;;;;;;;;18.28;49.54;100880.28;4981703;28;19960;-45
2022/01/03 09:16:04;;;;;;;;;;;;;;;18.29;49.48;100885.50;4982259;28;19934;-48
2022/01/03 09:18:30;;;;;;;;;;;;;;;18.31;49.49;100874.53;4976380;28;20453;-44
2022/01/03 09:20:55;;;;;;;;;;;;;;;18.34;49.58;100877.75;4981676;28;19928;-46
2022/01/03 09:23:26;;;;;;;;;;;;;;;18.40;49.43;100881.66;4981711;28;19918;-45
2022/01/03 09:28:56;;;;;;;;;;;;;;;18.55;49.12;100871.06;4980980;28;19986;-43
2022/01/03 09:31:24;;;;;;;;;;;;;;;18.62;48.98;100872.09;4980443;28;19926;-48
2022/01/03 09:33:51;;;;;;;;;;;;;;;18.66;49.02;100873.44;4981006;28;19926;-50
2022/01/03 09:36:16;;;;;;;;;;;;;;;18.70;48.82;100877.50;4981593;28;20446;-50
2022/01/03 09:38:41;;;;;;;;;;;;;;;18.74;48.79;100878.84;4981227;28;19918;-47
2022/01/03 09:41:07;;;;;;;;;;;;;;;18.76;48.84;100876.81;4980891;28;19953;-44
2022/01/03 09:43:46;;;;;;;;;;;;;;;18.79;48.60;100871.09;4980958;28;19953;-47
2022/01/03 09:46:12;;;;;;;;;;;;;;;18.83;48.56;100874.31;5009277;28;19929;-48
2022/01/03 09:48:37;;;;;;;;;;;;;;;18.85;48.70;100883.88;5018638;28;19918;-41
2022/01/03 09:51:02;;;;;;;;;;;;;;;18.87;48.68;100884.56;4981563;28;20337;-44
2022/01/03 09:53:28;;;;;;;;;;;;;;;18.88;48.38;100880.03;4980799;28;19942;-48
2022/01/03 09:55:53;;;;;;;;;;;;;;;18.88;48.18;100878.16;4985187;28;19922;-50
2022/01/03 09:58:18;;;;;;;;;;;;;;;18.89;48.16;100879.00;4980756;28;19924;-44
2022/01/03 10:00:43;;;;;;;;;;;;;;;18.88;48.17;100880.03;4981335;28;19926;-42
2022/01/03 10:03:09;;;;;;;;;;;;;;;18.87;48.16;100876.50;4982011;28;19922;-45
2022/01/03 10:05:34;;;;;;;;;;;;;;;18.90;48.29;100872.59;4983232;28;19922;-47
2022/01/03 10:07:59;;;;;;;;;;;;;;;18.90;48.26;100872.59;4985811;28;19941;-46
2022/01/03 10:10:27;;;;;;;;;;;;;;;18.91;48.15;100860.84;4984921;28;19930;-47
2022/01/03 10:12:52;;;;;;;;;;;;;;;18.93;48.00;100873.09;4985223;28;19918;-44
2022/01/03 10:15:17;;;;;;;;;;;;;;;18.93;47.74;100869.56;4990137;28;19972;-47
2022/01/03 10:17:42;;;;;;;;;;;;;;;18.95;47.86;100859.47;4985077;28;19918;-48
2022/01/03 10:20:12;;;;;;;;;;;;;;;19.00;48.12;100858.97;4984107;28;19922;-46
2022/01/03 10:22:38;;;;;;;;;;;;;;;19.04;47.94;100863.00;4985236;28;19924;-47
2022/01/03 10:25:30;;;;;;;;;;;;;;;19.07;47.70;100857.25;4982816;28;19926;-49
2022/01/03 10:27:57;;;;;;;;;;;;;;;18.98;47.54;100843.78;4979616;28;21134;-47
2022/01/03 10:30:38;;;;;;;;;;;;;;;19.11;47.84;100858.59;4984026;28;19929;-48
2022/01/03 10:33:04;;;;;;;;;;;;;;;19.11;47.50;100851.34;4984309;28;20701;-48
2022/01/03 10:35:34;;;;;;;;;;;;;;;19.14;47.68;100848.31;4983927;28;19918;-46
2022/01/03 10:37:59;;;;;;;;;;;;;;;19.18;47.44;100852.34;4984609;28;19925;-43
2022/01/03 10:40:27;;;;;;;;;;;;;;;19.20;47.38;100849.50;4983061;28;20008;-44
2022/01/03 10:42:53;;;;;;;;;;;;;;;19.21;47.24;100849.31;4984498;28;19954;-47
2022/01/03 10:45:31;;;;;;;;;;;;;;;19.22;47.17;100839.38;4982543;28;19926;-45
2022/01/03 10:47:57;;;;;;;;;;;;;;;19.22;47.40;100842.06;4983939;28;19928;-46
2022/01/03 10:50:24;;;;;;;;;;;;;;;19.22;47.19;100842.06;4982374;28;20012;-47
2022/01/03 10:52:49;;;;;;;;;;;;;;;19.21;47.22;100851.19;4984738;28;19942;-46
2022/01/03 10:55:15;;;;;;;;;;;;;;;19.20;47.16;100854.91;4984227;28;19933;-45
2022/01/03 10:57:59;;;;;;;;;;;;;;;19.19;47.23;100859.41;4984340;28;19993;-46
2022/01/03 11:00:24;;;;;;;;;;;;;;;19.17;47.08;100853.38;4981757;28;20494;-47
2022/01/03 11:03:05;;;;;;;;;;;;;;;18.98;46.97;100814.16;4984143;28;19953;-48
2022/01/03 11:05:37;;;;;;;;;;;;;;;19.18;47.21;100851.53;4983535;28;19922;-50
2022/01/03 11:10:43;;;;;;;;;;;;;;;19.21;47.22;100838.53;4983597;28;19922;-46
2022/01/03 11:13:08;;;;;;;;;;;;;;;19.24;46.82;100840.03;4982195;28;19918;-45
2022/01/03 11:15:36;;;;;;;;;;;;;;;19.27;46.84;100838.88;4982369;28;19918;-44
2022/01/03 11:18:17;;;;;;;;;;;;;;;19.30;46.82;100841.22;4982712;28;20016;-46
2022/01/03 11:20:43;;;;;;;;;;;;;;;19.31;46.82;100822.16;4982667;28;19922;-48
2022/01/03 11:23:09;;;;;;;;;;;;;;;19.32;46.75;100815.75;5014198;28;19918;-47
2022/01/03 11:25:34;;;;;;;;;;;;;;;19.33;46.76;100825.53;4983084;28;20671;-50
2022/01/03 11:28:00;;;;;;;;;;;;;;;19.36;47.10;100818.94;4982749;28;19933;-51
2022/01/03 11:30:25;;;;;;;;;;;;;;;19.39;47.10;100813.22;4981673;28;19991;-48
2022/01/03 11:32:50;;;;;;;;;;;;;;;19.40;47.10;100807.63;4983314;28;19965;-44
2022/01/03 11:35:16;;;;;;;;;;;;;;;19.40;46.82;100807.63;4982889;28;20522;-41
2022/01/03 11:37:41;;;;;;;;;;;;;;;19.40;47.03;100804.09;4983294;28;20407;-44
2022/01/03 11:40:08;;;;;;;;;;;;;;;19.40;47.03;100804.09;4982362;28;19945;-47
2022/01/03 11:42:33;;;;;;;;;;;;;;;19.39;46.93;100797.88;5014976;28;19918;-44
2022/01/03 11:44:58;;;;;;;;;;;;;;;19.39;46.84;100795.19;4982939;28;20399;-44
2022/01/03 11:47:23;;;;;;;;;;;;;;;19.42;47.00;100802.09;4982574;28;20025;-42
2022/01/03 11:49:50;;;;;;;;;;;;;;;19.43;47.02;100798.38;4981545;28;19965;-42
2022/01/03 11:52:15;;;;;;;;;;;;;;;19.45;47.15;100793.63;4981639;28;19926;-41
2022/01/03 11:54:41;;;;;;;;;;;;;;;19.45;46.88;100797.19;4983265;28;19953;-44
2022/01/03 11:57:15;;;;;;;;;;;;;;;19.47;47.07;100797.84;4982666;28;19950;-46
2022/01/03 12:05:28;;;;;;;;;;;;;;;19.50;47.07;100772.41;4982476;28;19941;-43
2022/01/03 12:07:54;;;;;;;;;;;;;;;19.53;47.01;100757.72;4982877;28;19918;-46
2022/01/03 12:10:19;;;;;;;;;;;;;;;19.54;47.01;100764.78;4982788;28;19967;-44
2022/01/03 12:12:44;;;;;;;;;;;;;;;19.55;46.66;100755.69;4982900;28;19933;-40
2022/01/03 12:15:29;;;;;;;;;;;;;;;19.56;46.62;100755.50;4982022;28;19918;-42
2022/01/03 12:17:55;;;;;;;;;;;;;;;19.58;46.66;100758.88;4980960;28;20077;-41
2022/01/03 12:20:21;;;;;;;;;;;;;;;19.61;46.85;100753.13;4980791;28;20395;-41
2022/01/03 12:22:55;;;;;;;;;;;;;;;19.63;46.76;100759.22;4980729;28;19918;-40
2022/01/03 12:25:24;;;;;;;;;;;;;;;19.65;46.73;100756.31;4981910;28;19922;-46
2022/01/03 12:27:53;;;;;;;;;;;;;;;19.65;46.68;100767.97;4980278;28;20405;-44
2022/01/03 12:30:19;;;;;;;;;;;;;;;19.66;46.66;100749.91;4982498;28;19926;-45
2022/01/03 12:33:05;;;;;;;;;;;;;;;19.67;46.64;100748.91;4982725;28;20316;-44
2022/01/03 12:35:30;;;;;;;;;;;;;;;19.68;46.44;100750.59;4981878;28;19918;-43
2022/01/03 12:38:04;;;;;;;;;;;;;;;19.67;46.43;100755.16;4982296;28;20398;-41
2022/01/03 12:40:34;;;;;;;;;;;;;;;19.68;46.46;100734.41;4980542;28;20116;-48
2022/01/03 12:43:07;;;;;;;;;;;;;;;19.68;46.59;100737.94;4979660;28;19926;-45
2022/01/03 12:45:32;;;;;;;;;;;;;;;19.68;46.56;100734.41;4983469;28;19925;-46
2022/01/03 12:48:09;;;;;;;;;;;;;;;19.69;46.74;100728.00;4983691;28;19950;-48
2022/01/03 12:50:34;;;;;;;;;;;;;;;19.68;46.37;100726.31;4983997;28;19923;-49